KHWD

Hayward Executive Airport

Hayward, California, USA
METAR KHWD 170454Z AUTO 02010G18KT 10SM CLR 14/M12 A2995 RMK AO2 SLP151 T01441117
Observed Flight Rules
Dec-17 @ 04:54 UTC (an hour ago) Visual Flight Rules
Wind Visibility Clouds
20° at 10 knots
 Gusting to 18 knots
10 miles
  • Clear skies
Temperatures Readings
Current 14°C / 57°F
Dewpoint -12°C / 10°F
Humidity 15%
Altimeter 29.95" Hg
Pressure 1015.1 hPa
Elevation 21
METAR KHWD 170454Z AUTO 02010G18KT 10SM CLR 14/M12 A2995 RMK AO2 SLP151 T01441117
Observed Flight Rules
Dec-17 @ 04:54 UTC
(an hour ago)
VFR
Wind Visibility
20° at 10 knots
 Gusting to 18 knots
10 miles
Clouds
  • Clear skies
Temperature Dewpoint
14°C / 57°F -12°C / 10°F
Humidity Altimeter Pressure
15% 29.95" Hg 1015.1 hPa